Time;durP1;ratioP1;P1;durP2;ratioP2;P2;SDS_P1;SDS_P2;PMS_P1;PMS_P2;Temp;Humidity;BMP_temperature;BMP_pressure;BME280_temperature;BME280_humidity;BME280_pressure;Samples;Min_cycle;Max_cycle;Signal;HPM_P1;HPM_P2
2023/05/18 00:01:34;;;;;;;;;;;;;;;;;;6102973;23;19921;-83
2023/05/18 00:04:04;;;;;;;;;;;;;;;;;;6102490;23;19920;-84
2023/05/18 00:06:34;;;;;;;;;;;;;;;;;;6127825;23;20368;-84
2023/05/18 00:09:01;;;;;;;;;;;;;;;;;;6132857;23;19925;-84
2023/05/18 00:11:28;;;;;;;;;;;;;;;;;;6153988;23;19944;-84
2023/05/18 00:13:55;;;;;;;;;;;;;;;;;;6102856;23;19927;-84
2023/05/18 00:16:22;;;;;;;;;;;;;;;;;;6103514;23;20268;-84
2023/05/18 00:18:53;;;;;;;;;;;;;;;;;;6126191;23;19928;-84
2023/05/18 00:21:21;;;;;;;;;;;;;;;;;;6132390;23;19931;-84
2023/05/18 00:23:50;;;;;;;;;;;;;;;;;;6134555;23;19920;-84
2023/05/18 00:26:17;;;;;;;;;;;;;;;;;;6133912;23;19924;-84
2023/05/18 00:28:48;;;;;;;;;;;;;;;;;;6132560;23;19920;-84
2023/05/18 00:31:15;;;;;;;;;;;;;;;;;;6132656;23;19924;-84
2023/05/18 00:33:44;;;;;;;;;;;;;;;;;;6168464;23;19924;-87
2023/05/18 00:36:11;;;;;;;;;;;;;;;;;;6133648;23;19943;-85
2023/05/18 00:38:38;;;;;;;;;;;;;;;;;;6131426;23;19931;-85
2023/05/18 00:41:10;;;;;;;;;;;;;;;;;;6158120;23;19927;-85
2023/05/18 00:43:40;;;;;;;;;;;;;;;;;;6134194;23;19931;-85
2023/05/18 00:46:10;;;;;;;;;;;;;;;;;;6133798;23;19920;-84
2023/05/18 00:48:41;;;;;;;;;;;;;;;;;;6133009;23;19920;-85
2023/05/18 00:51:08;;;;;;;;;;;;;;;;;;6158200;23;19947;-84
2023/05/18 00:53:38;;;;;;;;;;;;;;;;;;6133908;23;19927;-85
2023/05/18 00:56:07;;;;;;;;;;;;;;;;;;6133605;23;20267;-84
2023/05/18 00:58:41;;;;;;;;;;;;;;;;;;6133630;23;20261;-84
2023/05/18 01:01:10;;;;;;;;;;;;;;;;;;6133954;23;19924;-85
2023/05/18 01:03:38;;;;;;;;;;;;;;;;;;6133649;23;19925;-84
2023/05/18 01:06:11;;;;;;;;;;;;;;;;;;6134281;23;19920;-84
2023/05/18 01:08:41;;;;;;;;;;;;;;;;;;6183770;23;20368;-85
2023/05/18 01:11:13;;;;;;;;;;;;;;;;;;6132485;23;19927;-85
2023/05/18 01:13:43;;;;;;;;;;;;;;;;;;6133213;23;19928;-85
2023/05/18 01:16:10;;;;;;;;;;;;;;;;;;6157954;23;19927;-85
2023/05/18 01:18:42;;;;;;;;;;;;;;;;;;6130427;23;19931;-85
2023/05/18 01:21:19;;;;;;;;;;;;;;;;;;6134302;23;19920;-85
2023/05/18 01:23:52;;;;;;;;;;;;;;;;;;6167745;23;19927;-85
2023/05/18 01:26:23;;;;;;;;;;;;;;;;;;6134279;23;19921;-84
2023/05/18 01:28:51;;;;;;;;;;;;;;;;;;6132028;23;19920;-85
2023/05/18 01:31:18;;;;;;;;;;;;;;;;;;6133155;23;19928;-85
2023/05/18 01:33:46;;;;;;;;;;;;;;;;;;6132584;23;19927;-85
2023/05/18 01:36:13;;;;;;;;;;;;;;;;;;6134643;23;20371;-85
2023/05/18 01:38:45;;;;;;;;;;;;;;;;;;6133072;23;20252;-85
2023/05/18 01:41:16;;;;;;;;;;;;;;;;;;6133146;23;19921;-85
2023/05/18 01:43:53;;;;;;;;;;;;;;;;;;6133292;23;19924;-85
2023/05/18 01:46:35;;;;;;;;;;;;;;;;;;6167384;23;19931;-85
2023/05/18 01:49:06;;;;;;;;;;;;;;;;;;6133029;23;19968;-85
2023/05/18 01:51:36;;;;;;;;;;;;;;;;;;6109694;23;19920;-86
2023/05/18 01:54:06;;;;;;;;;;;;;;;;;;6133475;23;19920;-86
2023/05/18 01:56:36;;;;;;;;;;;;;;;;;;6133207;23;19924;-86
2023/05/18 01:59:04;;;;;;;;;;;;;;;;;;6133268;23;20349;-86
2023/05/18 02:01:34;;;;;;;;;;;;;;;;;;6133343;23;19931;-86
2023/05/18 02:04:07;;;;;;;;;;;;;;;;;;6158599;23;19924;-86
2023/05/18 02:06:37;;;;;;;;;;;;;;;;;;6133541;23;19931;-86
2023/05/18 02:09:07;;;;;;;;;;;;;;;;;;6158193;23;19927;-86
2023/05/18 02:11:38;;;;;;;;;;;;;;;;;;6132494;23;19921;-86
2023/05/18 02:14:07;;;;;;;;;;;;;;;;;;6133591;23;19927;-86
2023/05/18 02:16:34;;;;;;;;;;;;;;;;;;6132580;23;19920;-86
2023/05/18 02:19:04;;;;;;;;;;;;;;;;;;6133465;23;19924;-86
2023/05/18 02:21:34;;;;;;;;;;;;;;;;;;6132784;23;19924;-86
2023/05/18 02:24:03;;;;;;;;;;;;;;;;;;6158290;23;20325;-86
2023/05/18 02:26:30;;;;;;;;;;;;;;;;;;6133585;23;19921;-86
2023/05/18 02:28:57;;;;;;;;;;;;;;;;;;6132176;23;19920;-85
2023/05/18 02:31:29;;;;;;;;;;;;;;;;;;6133122;23;19921;-85
2023/05/18 02:33:56;;;;;;;;;;;;;;;;;;6156954;23;19927;-85
2023/05/18 02:36:23;;;;;;;;;;;;;;;;;;6157598;23;19928;-85
2023/05/18 02:38:50;;;;;;;;;;;;;;;;;;6132472;23;19920;-85
2023/05/18 02:41:21;;;;;;;;;;;;;;;;;;6157001;23;20341;-85
2023/05/18 02:43:51;;;;;;;;;;;;;;;;;;6157171;23;20344;-85
2023/05/18 02:46:19;;;;;;;;;;;;;;;;;;6144893;23;19908;-85
2023/05/18 02:48:50;;;;;;;;;;;;;;;;;;6156890;23;19908;-86
2023/05/18 02:51:17;;;;;;;;;;;;;;;;;;6156948;23;19924;-85
2023/05/18 02:53:47;;;;;;;;;;;;;;;;;;6157448;23;19908;-85
2023/05/18 02:56:17;;;;;;;;;;;;;;;;;;6158893;23;19909;-85
2023/05/18 02:59:02;;;;;;;;;;;;;;;;;;6159598;23;19909;-86
2023/05/18 03:01:39;;;;;;;;;;;;;;;;;;6194075;23;19908;-86
2023/05/18 03:04:12;;;;;;;;;;;;;;;;;;6160590;23;19920;-86
2023/05/18 03:06:46;;;;;;;;;;;;;;;;;;6158738;23;19931;-86
2023/05/18 03:09:14;;;;;;;;;;;;;;;;;;6160463;23;19968;-86
2023/05/18 03:11:43;;;;;;;;;;;;;;;;;;6159951;23;19955;-86
2023/05/18 03:14:13;;;;;;;;;;;;;;;;;;6185298;22;19964;-86
2023/05/18 03:16:40;;;;;;;;;;;;;;;;;;6159804;23;19995;-86
2023/05/18 03:19:14;;;;;;;;;;;;;;;;;;6160849;23;19964;-86
2023/05/18 03:21:48;;;;;;;;;;;;;;;;;;6147242;23;20260;-86
2023/05/18 03:24:19;;;;;;;;;;;;;;;;;;6150120;23;19946;-86
2023/05/18 03:26:53;;;;;;;;;;;;;;;;;;6146417;23;19931;-86
2023/05/18 03:29:20;;;;;;;;;;;;;;;;;;6150857;23;19924;-86
2023/05/18 03:31:54;;;;;;;;;;;;;;;;;;6148975;23;19928;-86
2023/05/18 03:34:22;;;;;;;;;;;;;;;;;;6183375;23;19948;-86
2023/05/18 03:36:53;;;;;;;;;;;;;;;;;;6160815;23;19948;-86
2023/05/18 03:39:21;;;;;;;;;;;;;;;;;;6158601;23;19948;-86
2023/05/18 03:41:54;;;;;;;;;;;;;;;;;;6145606;23;19920;-86
2023/05/18 03:44:22;;;;;;;;;;;;;;;;;;6159596;23;19926;-86
2023/05/18 03:46:49;;;;;;;;;;;;;;;;;;6160953;23;19952;-86
2023/05/18 03:49:20;;;;;;;;;;;;;;;;;;6159365;23;19919;-86
2023/05/18 03:51:48;;;;;;;;;;;;;;;;;;6161023;23;19968;-86
2023/05/18 03:54:42;;;;;;;;;;;;;;;;;;6185425;23;19955;-85
2023/05/18 03:57:10;;;;;;;;;;;;;;;;;;6160864;23;19952;-85
2023/05/18 03:59:40;;;;;;;;;;;;;;;;;;6161213;23;19947;-86
2023/05/18 04:02:09;;;;;;;;;;;;;;;;;;6186594;22;19905;-85
2023/05/18 04:04:36;;;;;;;;;;;;;;;;;;6161385;23;19948;-86
2023/05/18 04:07:05;;;;;;;;;;;;;;;;;;6160535;23;19968;-86
2023/05/18 04:09:33;;;;;;;;;;;;;;;;;;6159214;23;19952;-86
2023/05/18 04:12:04;;;;;;;;;;;;;;;;;;6183558;23;19935;-86
2023/05/18 04:14:32;;;;;;;;;;;;;;;;;;6167568;23;20341;-86
2023/05/18 04:17:04;;;;;;;;;;;;;;;;;;6139452;23;20341;-86
2023/05/18 04:19:32;;;;;;;;;;;;;;;;;;6146176;23;20244;-86
2023/05/18 04:22:03;;;;;;;;;;;;;;;;;;6141854;23;20375;-86
2023/05/18 04:24:33;;;;;;;;;;;;;;;;;;6152322;23;19923;-86
2023/05/18 04:27:02;;;;;;;;;;;;;;;;;;6182119;23;19920;-86
2023/05/18 04:29:31;;;;;;;;;;;;;;;;;;6131933;23;19928;-85
2023/05/18 04:32:00;;;;;;;;;;;;;;;;;;6157601;23;19921;-85
2023/05/18 04:34:30;;;;;;;;;;;;;;;;;;6158908;23;19924;-85
2023/05/18 04:37:04;;;;;;;;;;;;;;;;;;6133410;23;19920;-86
2023/05/18 04:39:33;;;;;;;;;;;;;;;;;;6131936;23;20264;-85
2023/05/18 04:42:03;;;;;;;;;;;;;;;;;;6133543;23;19920;-85
2023/05/18 04:44:32;;;;;;;;;;;;;;;;;;6132672;23;19924;-85
2023/05/18 04:47:03;;;;;;;;;;;;;;;;;;6132485;23;19920;-85
2023/05/18 04:49:31;;;;;;;;;;;;;;;;;;6132798;23;19924;-85
2023/05/18 04:51:59;;;;;;;;;;;;;;;;;;6132229;23;19920;-85
2023/05/18 04:54:29;;;;;;;;;;;;;;;;;;6132155;23;19957;-85
2023/05/18 04:57:03;;;;;;;;;;;;;;;;;;6108789;23;20363;-86
2023/05/18 04:59:30;;;;;;;;;;;;;;;;;;6131509;23;20256;-85
2023/05/18 05:01:57;;;;;;;;;;;;;;;;;;6130745;23;19920;-86
2023/05/18 05:04:25;;;;;;;;;;;;;;;;;;6132631;23;19924;-85
2023/05/18 05:06:52;;;;;;;;;;;;;;;;;;6131964;23;19927;-86
2023/05/18 05:09:19;;;;;;;;;;;;;;;;;;6133453;23;19943;-86
2023/05/18 05:11:46;;;;;;;;;;;;;;;;;;6156397;23;19927;-86
2023/05/18 05:14:15;;;;;;;;;;;;;;;;;;6134456;23;19920;-86
2023/05/18 05:16:42;;;;;;;;;;;;;;;;;;6194914;23;19920;-86
2023/05/18 05:19:14;;;;;;;;;;;;;;;;;;6133756;23;19931;-86
2023/05/18 05:21:42;;;;;;;;;;;;;;;;;;6133224;23;19924;-86
2023/05/18 05:24:09;;;;;;;;;;;;;;;;;;6133807;23;19920;-86
2023/05/18 05:26:36;;;;;;;;;;;;;;;;;;6133359;23;19921;-86
2023/05/18 05:29:09;;;;;;;;;;;;;;;;;;6133650;23;19928;-86
2023/05/18 05:31:40;;;;;;;;;;;;;;;;;;6133595;23;20192;-86
2023/05/18 05:34:12;;;;;;;;;;;;;;;;;;6156920;23;20261;-86
2023/05/18 05:36:41;;;;;;;;;;;;;;;;;;6132396;23;19927;-86
2023/05/18 05:39:09;;;;;;;;;;;;;;;;;;6133971;23;19931;-86
2023/05/18 05:41:39;;;;;;;;;;;;;;;;;;6133706;23;20256;-86
2023/05/18 05:44:09;;;;;;;;;;;;;;;;;;6132130;23;19924;-86
2023/05/18 05:46:48;;;;;;;;;;;;;;;;;;6131364;23;19924;-87
2023/05/18 11:34:06;;;;;;;;;;;;;;;;;;6176221;23;20403;-86
2023/05/18 11:36:34;;;;;;;;;;;;;;;;;;6167405;23;19948;-86
2023/05/18 11:41:35;;;;;;;;;;;;;;;;;;6182539;23;19940;-96
2023/05/18 11:44:08;;;;;;;;;;;;;;;;;;6182034;23;19945;-94
2023/05/18 11:46:35;;;;;;;;;;;;;;;;;;6160977;23;19919;-94
2023/05/18 11:49:03;;;;;;;;;;;;;;;;;;6151412;23;19949;-93
2023/05/18 11:51:32;;;;;;;;;;;;;;;;;;6135890;23;19949;-95
2023/05/18 11:54:02;;;;;;;;;;;;;;;;;;6136382;23;19947;-96
2023/05/18 11:56:33;;;;;;;;;;;;;;;;;;6136830;23;19948;-94
2023/05/18 11:59:12;;;;;;;;;;;;;;;;;;6161579;23;19949;-94
2023/05/18 12:01:40;;;;;;;;;;;;;;;;;;6162027;23;19945;-95
2023/05/18 12:04:07;;;;;;;;;;;;;;;;;;6136691;23;19909;-94
2023/05/18 12:06:36;;;;;;;;;;;;;;;;;;6151906;23;19956;-96
2023/05/18 12:09:05;;;;;;;;;;;;;;;;;;6136898;23;19976;-93
2023/05/18 12:11:33;;;;;;;;;;;;;;;;;;6136283;23;19953;-95
2023/05/18 12:14:00;;;;;;;;;;;;;;;;;;6153352;23;20118;-95
2023/05/18 12:16:27;;;;;;;;;;;;;;;;;;6153289;23;19944;-96
2023/05/18 12:18:57;;;;;;;;;;;;;;;;;;6139493;23;19945;-95
2023/05/18 12:21:25;;;;;;;;;;;;;;;;;;6162874;23;19917;-94
2023/05/18 12:24:01;;;;;;;;;;;;;;;;;;6164955;23;19972;-95
2023/05/18 12:26:28;;;;;;;;;;;;;;;;;;6161636;23;19944;-94
2023/05/18 12:28:55;;;;;;;;;;;;;;;;;;6139694;23;19956;-93
2023/05/18 12:31:22;;;;;;;;;;;;;;;;;;6138177;23;19945;-93
2023/05/18 12:33:53;;;;;;;;;;;;;;;;;;6139607;23;19949;-93
2023/05/18 12:36:20;;;;;;;;;;;;;;;;;;6154545;23;19944;-94
2023/05/18 12:38:51;;;;;;;;;;;;;;;;;;6163903;23;19960;-94
2023/05/18 12:41:23;;;;;;;;;;;;;;;;;;6141282;23;19946;-94
2023/05/18 12:43:53;;;;;;;;;;;;;;;;;;6138976;23;19961;-94
2023/05/18 12:46:21;;;;;;;;;;;;;;;;;;6139532;23;19949;-95
2023/05/18 12:48:56;;;;;;;;;;;;;;;;;;6139293;23;19952;-95
2023/05/18 12:51:29;;;;;;;;;;;;;;;;;;6137990;23;19968;-94
2023/05/18 12:53:57;;;;;;;;;;;;;;;;;;6163611;23;19949;-94
2023/05/18 12:56:25;;;;;;;;;;;;;;;;;;6138983;23;19949;-95
2023/05/18 12:58:58;;;;;;;;;;;;;;;;;;6154723;23;19945;-95
2023/05/18 13:01:25;;;;;;;;;;;;;;;;;;6138332;23;19931;-94
2023/05/18 13:03:56;;;;;;;;;;;;;;;;;;6138543;23;19913;-95
2023/05/18 13:06:23;;;;;;;;;;;;;;;;;;6153921;23;19953;-94
2023/05/18 13:08:53;;;;;;;;;;;;;;;;;;6153939;23;19945;-95
2023/05/18 13:11:23;;;;;;;;;;;;;;;;;;6153665;23;20042;-93
2023/05/18 13:13:58;;;;;;;;;;;;;;;;;;6153502;23;19961;-94
2023/05/18 13:16:25;;;;;;;;;;;;;;;;;;6160940;23;19960;-95
2023/05/18 13:18:55;;;;;;;;;;;;;;;;;;6154353;23;19948;-93
2023/05/18 13:21:28;;;;;;;;;;;;;;;;;;6163148;23;19915;-95
2023/05/18 13:23:57;;;;;;;;;;;;;;;;;;6138781;23;19957;-92
2023/05/18 13:26:27;;;;;;;;;;;;;;;;;;6138610;23;19953;-94
2023/05/18 13:28:55;;;;;;;;;;;;;;;;;;6153806;23;19944;-94
2023/05/18 13:31:23;;;;;;;;;;;;;;;;;;6154228;23;19957;-92
2023/05/18 13:33:50;;;;;;;;;;;;;;;;;;6138369;23;19948;-93
2023/05/18 13:36:18;;;;;;;;;;;;;;;;;;6153637;23;19949;-94
2023/05/18 13:38:45;;;;;;;;;;;;;;;;;;6138872;23;19940;-94
2023/05/18 13:41:16;;;;;;;;;;;;;;;;;;6154147;23;19939;-94
2023/05/18 13:43:43;;;;;;;;;;;;;;;;;;6164027;23;19949;-94
2023/05/18 13:46:13;;;;;;;;;;;;;;;;;;6138681;23;19949;-94
2023/05/18 13:48:44;;;;;;;;;;;;;;;;;;6154005;23;19949;-95
2023/05/18 13:51:11;;;;;;;;;;;;;;;;;;6138091;23;19949;-94
2023/05/18 13:53:40;;;;;;;;;;;;;;;;;;6139121;23;19944;-95
2023/05/18 13:56:07;;;;;;;;;;;;;;;;;;6154099;23;19964;-93
2023/05/18 13:58:36;;;;;;;;;;;;;;;;;;6154686;23;19957;-95
2023/05/18 14:01:06;;;;;;;;;;;;;;;;;;6154080;23;19944;-94
2023/05/18 14:03:35;;;;;;;;;;;;;;;;;;6154270;23;19949;-95
2023/05/18 14:06:12;;;;;;;;;;;;;;;;;;6137863;23;19904;-94
2023/05/18 14:08:39;;;;;;;;;;;;;;;;;;6163161;23;19945;-95
2023/05/18 14:11:06;;;;;;;;;;;;;;;;;;6153701;23;19961;-95
2023/05/18 14:13:33;;;;;;;;;;;;;;;;;;6153441;23;19968;-94
2023/05/18 14:16:00;;;;;;;;;;;;;;;;;;6153370;23;19945;-94
2023/05/18 14:18:27;;;;;;;;;;;;;;;;;;6153359;23;19953;-96
2023/05/18 14:21:00;;;;;;;;;;;;;;;;;;6153771;23;19968;-94
2023/05/18 14:23:29;;;;;;;;;;;;;;;;;;6138529;23;19965;-95
2023/05/18 14:25:56;;;;;;;;;;;;;;;;;;6153448;23;19953;-94
2023/05/18 14:28:23;;;;;;;;;;;;;;;;;;6152962;23;19950;-93
2023/05/18 14:30:50;;;;;;;;;;;;;;;;;;6137928;23;19931;-95
2023/05/18 14:33:20;;;;;;;;;;;;;;;;;;6160290;23;19935;-93
2023/05/18 14:36:08;;;;;;;;;;;;;;;;;;6136848;23;19923;-93
2023/05/18 14:38:49;;;;;;;;;;;;;;;;;;;;;
2023/05/18 14:41:20;;;;;;;;;;;;;;;;;;6070472;23;19928;-84
2023/05/18 14:43:49;;;;;;;;;;;;;;;;;;6078890;23;20327;-83
2023/05/18 14:46:16;;;;;;;;;;;;;;;;;;6066897;23;19921;-83
2023/05/18 14:48:43;;;;;;;;;;;;;;;;;;6067043;23;19922;-84
2023/05/18 15:52:24;;;;;;;;;;;;;;;;;;6148386;23;19921;-80
2023/05/18 15:54:51;;;;;;;;;;;;;;;;;;6141394;23;19924;-80
2023/05/18 15:57:21;;;;;;;;;;;;;;;;;;6140990;23;19920;-80
2023/05/18 15:59:48;;;;;;;;;;;;;;;;;;6133560;23;20230;-81
2023/05/18 16:02:30;;;;;;;;;;;;;;;;;;6160792;23;19944;-81
2023/05/18 16:04:57;;;;;;;;;;;;;;;;;;6161085;23;19929;-81
2023/05/18 16:07:25;;;;;;;;;;;;;;;;;;6150086;23;19928;-81
2023/05/18 16:09:53;;;;;;;;;;;;;;;;;;6111394;23;19920;-80
2023/05/18 16:12:27;;;;;;;;;;;;;;;;;;6113035;23;19944;-81
2023/05/18 16:17:53;;;;;;;;;;;;;;;;;;6102446;23;19921;-80
2023/05/18 16:20:20;;;;;;;;;;;;;;;;;;6110429;23;19925;-81
2023/05/18 16:22:50;;;;;;;;;;;;;;;;;;6111754;23;19925;-80
2023/05/18 16:25:17;;;;;;;;;;;;;;;;;;6140557;23;20231;-81
2023/05/18 16:27:46;;;;;;;;;;;;;;;;;;6134036;23;19925;-81
2023/05/18 16:30:13;;;;;;;;;;;;;;;;;;6163219;23;19925;-81
2023/05/18 16:32:42;;;;;;;;;;;;;;;;;;6115789;23;19931;-81
2023/05/18 16:35:09;;;;;;;;;;;;;;;;;;6165522;23;19927;-81
2023/05/18 16:37:36;;;;;;;;;;;;;;;;;;6131353;23;19921;-81
2023/05/18 16:40:05;;;;;;;;;;;;;;;;;;6163979;23;19921;-81
2023/05/18 16:42:32;;;;;;;;;;;;;;;;;;6113862;23;20184;-80
2023/05/18 16:45:01;;;;;;;;;;;;;;;;;;6131062;23;19927;-80
2023/05/18 16:47:30;;;;;;;;;;;;;;;;;;6162139;23;19936;-81
2023/05/18 16:49:57;;;;;;;;;;;;;;;;;;6129298;23;19925;-82
2023/05/18 16:52:29;;;;;;;;;;;;;;;;;;6162293;23;19932;-82
2023/05/18 16:54:56;;;;;;;;;;;;;;;;;;6131383;23;19921;-82
2023/05/18 16:57:25;;;;;;;;;;;;;;;;;;6164707;23;19921;-82
2023/05/18 16:59:55;;;;;;;;;;;;;;;;;;6113651;23;19921;-82
2023/05/18 17:02:35;;;;;;;;;;;;;;;;;;6162684;23;19925;-82
2023/05/18 17:05:05;;;;;;;;;;;;;;;;;;6115641;23;19925;-81
2023/05/18 17:07:35;;;;;;;;;;;;;;;;;;6114321;23;19921;-81
2023/05/18 17:10:05;;;;;;;;;;;;;;;;;;6130771;23;19950;-81
2023/05/18 17:12:35;;;;;;;;;;;;;;;;;;6115054;23;19921;-81
2023/05/18 17:15:11;;;;;;;;;;;;;;;;;;6112017;23;19944;-82
2023/05/18 17:17:38;;;;;;;;;;;;;;;;;;6139488;23;19936;-82
2023/05/18 17:20:07;;;;;;;;;;;;;;;;;;6130514;23;19927;-82
2023/05/18 17:22:38;;;;;;;;;;;;;;;;;;6113545;23;19931;-82
2023/05/18 17:25:05;;;;;;;;;;;;;;;;;;6116724;23;19927;-82
2023/05/18 17:27:32;;;;;;;;;;;;;;;;;;6114925;23;19935;-82
2023/05/18 17:30:02;;;;;;;;;;;;;;;;;;6116226;23;19927;-82
2023/05/18 17:32:31;;;;;;;;;;;;;;;;;;6131815;23;19921;-82
2023/05/18 17:34:58;;;;;;;;;;;;;;;;;;6130675;23;19924;-81
2023/05/18 17:37:30;;;;;;;;;;;;;;;;;;6164539;23;19925;-81
2023/05/18 17:39:57;;;;;;;;;;;;;;;;;;6164463;23;19925;-81
2023/05/18 17:42:24;;;;;;;;;;;;;;;;;;6127685;23;19920;-81
2023/05/18 17:44:51;;;;;;;;;;;;;;;;;;6159456;23;19925;-81
2023/05/18 17:47:22;;;;;;;;;;;;;;;;;;6127267;23;20330;-81
2023/05/18 17:49:52;;;;;;;;;;;;;;;;;;6158194;23;19920;-81
2023/05/18 17:52:19;;;;;;;;;;;;;;;;;;6126639;23;19921;-81
2023/05/18 17:55:11;;;;;;;;;;;;;;;;;;6137678;23;19924;-81
2023/05/18 17:57:43;;;;;;;;;;;;;;;;;;6108986;23;19932;-81
2023/05/18 18:00:11;;;;;;;;;;;;;;;;;;6159886;23;19932;-81
2023/05/18 18:02:44;;;;;;;;;;;;;;;;;;6126240;23;19928;-81
2023/05/18 18:05:11;;;;;;;;;;;;;;;;;;6158558;23;19932;-81
2023/05/18 18:07:39;;;;;;;;;;;;;;;;;;6148591;23;19931;-81
2023/05/18 18:10:06;;;;;;;;;;;;;;;;;;6124972;23;19928;-81
2023/05/18 18:12:36;;;;;;;;;;;;;;;;;;6110035;23;19925;-81
2023/05/18 18:15:05;;;;;;;;;;;;;;;;;;6101132;23;19921;-81
2023/05/18 18:17:58;;;;;;;;;;;;;;;;;;6103773;23;19921;-81
2023/05/18 18:20:30;;;;;;;;;;;;;;;;;;6157427;23;20519;-81
2023/05/18 18:23:03;;;;;;;;;;;;;;;;;;6119141;23;19925;-81
2023/05/18 18:25:30;;;;;;;;;;;;;;;;;;6109448;23;19921;-81
2023/05/18 18:27:57;;;;;;;;;;;;;;;;;;6110959;23;19931;-81
2023/05/18 18:30:27;;;;;;;;;;;;;;;;;;6137105;23;19921;-81
2023/05/18 18:32:54;;;;;;;;;;;;;;;;;;6133828;23;20257;-81
2023/05/18 18:35:21;;;;;;;;;;;;;;;;;;6135077;23;19927;-82
2023/05/18 18:37:51;;;;;;;;;;;;;;;;;;6133756;23;20337;-82
2023/05/18 18:40:44;;;;;;;;;;;;;;;;;;6107745;23;20257;-82
2023/05/18 18:43:13;;;;;;;;;;;;;;;;;;6132614;23;19921;-81
2023/05/18 18:45:40;;;;;;;;;;;;;;;;;;6108087;23;19924;-81
2023/05/18 18:48:12;;;;;;;;;;;;;;;;;;6133224;23;19925;-81
2023/05/18 18:50:46;;;;;;;;;;;;;;;;;;6143411;23;20253;-82
2023/05/18 18:53:20;;;;;;;;;;;;;;;;;;6135100;23;19932;-81
2023/05/18 18:55:49;;;;;;;;;;;;;;;;;;6085357;23;19921;-81
2023/05/18 18:58:16;;;;;;;;;;;;;;;;;;6157635;23;19925;-82
2023/05/18 19:00:43;;;;;;;;;;;;;;;;;;6084104;23;19925;-82
2023/05/18 19:03:13;;;;;;;;;;;;;;;;;;6085461;23;19921;-82
2023/05/18 19:05:46;;;;;;;;;;;;;;;;;;6108884;23;19921;-82
2023/05/18 19:08:14;;;;;;;;;;;;;;;;;;6107921;23;19927;-82
2023/05/18 19:10:45;;;;;;;;;;;;;;;;;;6131738;23;19925;-81
2023/05/18 19:13:15;;;;;;;;;;;;;;;;;;6081967;23;19928;-81
2023/05/18 19:15:44;;;;;;;;;;;;;;;;;;6134041;23;19927;-81
2023/05/18 19:18:11;;;;;;;;;;;;;;;;;;6108627;23;19924;-81
2023/05/18 19:20:40;;;;;;;;;;;;;;;;;;6130130;23;19921;-81
2023/05/18 19:23:10;;;;;;;;;;;;;;;;;;6106800;23;19920;-81
2023/05/18 19:25:37;;;;;;;;;;;;;;;;;;6130285;23;19921;-81
2023/05/18 19:28:07;;;;;;;;;;;;;;;;;;6076995;23;20171;-80
2023/05/18 19:30:34;;;;;;;;;;;;;;;;;;6150396;23;19921;-81
2023/05/18 19:33:01;;;;;;;;;;;;;;;;;;6102141;23;19936;-81
2023/05/18 19:35:29;;;;;;;;;;;;;;;;;;6126093;23;19925;-81
2023/05/18 19:37:57;;;;;;;;;;;;;;;;;;6102779;23;20337;-81
2023/05/18 19:40:26;;;;;;;;;;;;;;;;;;6126943;23;19921;-81
2023/05/18 19:42:52;;;;;;;;;;;;;;;;;;6126386;23;19921;-80
2023/05/18 19:45:23;;;;;;;;;;;;;;;;;;6125158;23;19924;-80
2023/05/18 19:47:51;;;;;;;;;;;;;;;;;;6139692;23;19920;-81
2023/05/18 19:50:18;;;;;;;;;;;;;;;;;;6126805;23;19928;-80
2023/05/18 19:52:48;;;;;;;;;;;;;;;;;;6131419;23;20251;-81
2023/05/18 19:55:19;;;;;;;;;;;;;;;;;;6127726;23;19928;-80
2023/05/18 19:57:47;;;;;;;;;;;;;;;;;;6129588;23;19936;-80
2023/05/18 20:00:18;;;;;;;;;;;;;;;;;;6079177;23;20256;-81
2023/05/18 20:02:49;;;;;;;;;;;;;;;;;;6128941;23;19932;-81
2023/05/18 20:05:18;;;;;;;;;;;;;;;;;;6139224;23;19921;-81
2023/05/18 20:07:48;;;;;;;;;;;;;;;;;;6103561;23;20371;-81
2023/05/18 20:10:15;;;;;;;;;;;;;;;;;;6153330;23;19952;-80
2023/05/18 20:12:42;;;;;;;;;;;;;;;;;;6127559;23;19921;-80
2023/05/18 20:15:09;;;;;;;;;;;;;;;;;;6104094;23;20296;-80
2023/05/18 20:17:39;;;;;;;;;;;;;;;;;;6101822;23;20351;-80
2023/05/18 20:20:08;;;;;;;;;;;;;;;;;;6078693;23;19921;-80
2023/05/18 20:22:35;;;;;;;;;;;;;;;;;;6100572;23;19921;-81
2023/05/18 20:25:05;;;;;;;;;;;;;;;;;;6129649;23;19921;-81
2023/05/18 20:27:32;;;;;;;;;;;;;;;;;;6078252;23;20364;-80
2023/05/18 20:30:05;;;;;;;;;;;;;;;;;;6122862;23;19928;-80
2023/05/18 20:32:32;;;;;;;;;;;;;;;;;;6074700;23;19921;-80
2023/05/18 20:34:59;;;;;;;;;;;;;;;;;;6101939;23;19921;-80
2023/05/18 20:37:32;;;;;;;;;;;;;;;;;;6076663;23;19921;-80
2023/05/18 20:40:08;;;;;;;;;;;;;;;;;;6129728;23;19925;-80
2023/05/18 20:42:37;;;;;;;;;;;;;;;;;;6103439;23;19921;-80
2023/05/18 20:45:06;;;;;;;;;;;;;;;;;;6106803;23;19921;-81
2023/05/18 20:47:33;;;;;;;;;;;;;;;;;;6105260;23;19921;-80
2023/05/18 20:50:01;;;;;;;;;;;;;;;;;;6081679;23;20261;-81
2023/05/18 20:52:30;;;;;;;;;;;;;;;;;;6104578;23;20092;-81
2023/05/18 20:54:57;;;;;;;;;;;;;;;;;;6130141;23;19921;-81
2023/05/18 20:57:26;;;;;;;;;;;;;;;;;;6106086;23;19931;-81
2023/05/18 20:59:53;;;;;;;;;;;;;;;;;;6128961;23;19921;-81
2023/05/18 21:02:22;;;;;;;;;;;;;;;;;;6102578;23;19925;-81
2023/05/18 21:04:49;;;;;;;;;;;;;;;;;;6103701;23;19928;-81
2023/05/18 21:07:16;;;;;;;;;;;;;;;;;;6128956;23;19944;-80
2023/05/18 21:09:53;;;;;;;;;;;;;;;;;;6127280;23;19924;-81
2023/05/18 21:12:26;;;;;;;;;;;;;;;;;;6106175;23;19929;-80
2023/05/18 21:14:57;;;;;;;;;;;;;;;;;;6140107;23;20391;-80
2023/05/18 21:17:24;;;;;;;;;;;;;;;;;;6102691;23;20401;-80
2023/05/18 21:19:51;;;;;;;;;;;;;;;;;;6105150;23;19925;-81
2023/05/18 21:22:21;;;;;;;;;;;;;;;;;;6154472;23;19924;-81
2023/05/18 21:24:54;;;;;;;;;;;;;;;;;;6104962;23;19962;-80
2023/05/18 21:27:26;;;;;;;;;;;;;;;;;;6082424;23;20244;-80
2023/05/18 21:29:56;;;;;;;;;;;;;;;;;;6130749;23;19921;-80
2023/05/18 21:32:23;;;;;;;;;;;;;;;;;;6107368;23;20387;-80
2023/05/18 21:34:50;;;;;;;;;;;;;;;;;;6131756;23;19928;-80
2023/05/18 21:37:26;;;;;;;;;;;;;;;;;;6130430;23;19920;-80
2023/05/18 21:39:54;;;;;;;;;;;;;;;;;;6083129;23;19936;-80
2023/05/18 21:42:23;;;;;;;;;;;;;;;;;;6104347;23;19925;-80
2023/05/18 21:44:54;;;;;;;;;;;;;;;;;;6106896;23;20359;-80
2023/05/18 21:47:22;;;;;;;;;;;;;;;;;;6079354;23;20264;-79
2023/05/18 21:49:52;;;;;;;;;;;;;;;;;;6103847;23;19921;-80
2023/05/18 21:52:22;;;;;;;;;;;;;;;;;;6080560;23;19920;-80
2023/05/18 21:54:49;;;;;;;;;;;;;;;;;;6131901;23;19927;-80
2023/05/18 21:57:20;;;;;;;;;;;;;;;;;;6154026;23;19925;-80
2023/05/18 21:59:47;;;;;;;;;;;;;;;;;;6080653;23;20333;-81
2023/05/18 22:02:14;;;;;;;;;;;;;;;;;;6104490;23;19921;-80
2023/05/18 22:04:43;;;;;;;;;;;;;;;;;;6129633;23;20227;-81
2023/05/18 22:07:13;;;;;;;;;;;;;;;;;;6131176;23;20366;-83
2023/05/18 22:09:40;;;;;;;;;;;;;;;;;;6085355;23;20349;-83
2023/05/18 22:12:07;;;;;;;;;;;;;;;;;;6124500;23;19924;-83
2023/05/18 22:14:40;;;;;;;;;;;;;;;;;;6108862;23;19925;-83
2023/05/18 22:17:09;;;;;;;;;;;;;;;;;;6076066;23;19928;-83
2023/05/18 22:19:36;;;;;;;;;;;;;;;;;;6124188;23;19921;-82
2023/05/18 22:22:06;;;;;;;;;;;;;;;;;;6076122;23;19921;-83
2023/05/18 22:24:33;;;;;;;;;;;;;;;;;;6075120;23;19920;-82
2023/05/18 22:27:03;;;;;;;;;;;;;;;;;;6100062;23;19928;-82
2023/05/18 22:29:30;;;;;;;;;;;;;;;;;;6075506;23;19928;-82
2023/05/18 22:31:59;;;;;;;;;;;;;;;;;;6075291;23;19921;-82
2023/05/18 22:34:31;;;;;;;;;;;;;;;;;;6098353;23;19928;-82
2023/05/18 22:36:58;;;;;;;;;;;;;;;;;;6074907;23;19932;-82
2023/05/18 22:39:25;;;;;;;;;;;;;;;;;;6074392;23;19921;-82
2023/05/18 22:41:54;;;;;;;;;;;;;;;;;;6098770;23;20360;-82
2023/05/18 22:44:21;;;;;;;;;;;;;;;;;;6075754;23;19925;-82
2023/05/18 22:46:51;;;;;;;;;;;;;;;;;;6127361;23;19921;-82
2023/05/18 22:49:22;;;;;;;;;;;;;;;;;;6101843;23;19925;-82
2023/05/18 22:51:52;;;;;;;;;;;;;;;;;;6078565;23;20246;-82
2023/05/18 22:54:21;;;;;;;;;;;;;;;;;;6101721;23;19932;-82
2023/05/18 22:56:48;;;;;;;;;;;;;;;;;;6077682;23;19936;-83
2023/05/18 22:59:19;;;;;;;;;;;;;;;;;;6101393;23;19921;-82
2023/05/18 23:01:46;;;;;;;;;;;;;;;;;;6126909;23;19921;-82
2023/05/18 23:04:18;;;;;;;;;;;;;;;;;;6105042;23;19921;-83
2023/05/18 23:06:47;;;;;;;;;;;;;;;;;;6079516;23;19928;-82
2023/05/18 23:09:19;;;;;;;;;;;;;;;;;;6103254;23;19943;-82
2023/05/18 23:11:47;;;;;;;;;;;;;;;;;;6099899;23;20254;-82
2023/05/18 23:14:16;;;;;;;;;;;;;;;;;;6099939;23;19966;-82
2023/05/18 23:16:46;;;;;;;;;;;;;;;;;;6099488;23;20309;-82
2023/05/18 23:19:13;;;;;;;;;;;;;;;;;;6126310;23;19921;-83
2023/05/18 23:21:42;;;;;;;;;;;;;;;;;;6098945;23;19925;-83
2023/05/18 23:24:11;;;;;;;;;;;;;;;;;;6125728;23;19921;-83
2023/05/18 23:26:43;;;;;;;;;;;;;;;;;;6109853;23;19924;-82
2023/05/18 23:29:11;;;;;;;;;;;;;;;;;;6099339;23;19925;-83
2023/05/18 23:31:38;;;;;;;;;;;;;;;;;;6075175;23;19921;-82
2023/05/18 23:34:05;;;;;;;;;;;;;;;;;;6126002;23;20364;-82
2023/05/18 23:36:34;;;;;;;;;;;;;;;;;;6103710;23;19921;-82
2023/05/18 23:39:02;;;;;;;;;;;;;;;;;;6129046;23;20197;-82
2023/05/18 23:41:31;;;;;;;;;;;;;;;;;;6078088;23;19943;-82
2023/05/18 23:43:58;;;;;;;;;;;;;;;;;;6135944;23;19920;-82
2023/05/18 23:46:28;;;;;;;;;;;;;;;;;;6099953;23;19928;-82
2023/05/18 23:48:58;;;;;;;;;;;;;;;;;;6100656;23;19928;-82
2023/05/18 23:51:26;;;;;;;;;;;;;;;;;;6076128;23;19921;-83
2023/05/18 23:53:59;;;;;;;;;;;;;;;;;;6053145;23;19932;-82